Time;durP1;ratioP1;P1;durP2;ratioP2;P2;SDS_P1;SDS_P2;PMS_P1;PMS_P2;Temp;Humidity;BMP_temperature;BMP_pressure;BME280_temperature;BME280_humidity;BME280_pressure;Samples;Min_cycle;Max_cycle;Signal;HPM_P1;HPM_P2
2022/01/27 00:03:15;;;;;;;23.20;11.83;;;;;;;2.97;94.05;101730.06;5034475;28;20228;-74
2022/01/27 00:05:48;;;;;;;20.77;11.40;;;;;;;2.97;94.15;101728.31;5052383;28;20232;-74
2022/01/27 00:08:18;;;;;;;18.40;11.33;;;;;;;2.97;94.00;101714.28;5042286;28;20213;-74
2022/01/27 00:10:51;;;;;;;23.17;11.23;;;;;;;2.99;95.01;101715.13;5036399;28;20210;-74
2022/01/27 00:13:19;;;;;;;19.23;10.43;;;;;;;3.02;94.21;101707.19;5033563;28;20265;-74
2022/01/27 00:15:57;;;;;;;22.57;12.47;;;;;;;3.01;94.45;101711.56;5045561;28;20201;-74
2022/01/27 00:18:24;;;;;;;21.47;12.27;;;;;;;3.02;94.24;101708.06;5035892;28;20216;-74
2022/01/27 00:20:50;;;;;;;20.23;11.57;;;;;;;3.04;93.87;101692.25;5052835;28;20276;-74
2022/01/27 00:23:17;;;;;;;23.43;11.23;;;;;;;3.05;94.02;101688.69;5059537;28;20237;-74
2022/01/27 00:25:45;;;;;;;18.17;10.97;;;;;;;3.04;94.47;101682.59;5064341;28;20221;-75
2022/01/27 00:28:12;;;;;;;18.50;9.87;;;;;;;3.06;93.89;101690.44;5050519;28;20209;-74
2022/01/27 00:30:40;;;;;;;17.47;10.00;;;;;;;3.06;94.28;101687.78;5061679;28;20209;-74
2022/01/27 00:33:07;;;;;;;19.20;10.43;;;;;;;3.09;94.07;101695.66;5034205;28;20312;-74
2022/01/27 00:35:35;;;;;;;18.37;9.20;;;;;;;3.09;94.05;101671.97;5052968;28;20205;-75
2022/01/27 00:38:02;;;;;;;19.47;10.07;;;;;;;3.06;93.70;101685.16;5040162;28;20209;-74
2022/01/27 00:40:28;;;;;;;20.17;10.27;;;;;;;3.07;93.54;101674.63;5035803;28;20702;-75
2022/01/27 00:42:56;;;;;;;17.93;10.20;;;;;;;3.06;93.31;101664.97;5039955;28;20734;-74
2022/01/27 00:45:24;;;;;;;17.37;10.10;;;;;;;3.07;93.74;101666.72;5037919;28;20234;-75
2022/01/27 00:47:51;;;;;;;14.13;9.10;;;;;;;3.06;93.05;101651.81;5035125;28;20678;-74
2022/01/27 00:50:19;;;;;;;21.50;10.60;;;;;;;3.06;93.06;101669.38;5044356;28;20220;-74
2022/01/27 00:52:49;;;;;;;16.03;9.53;;;;;;;3.08;92.96;101665.84;5057875;28;20225;-74
2022/01/27 00:55:17;;;;;;;14.90;10.07;;;;;;;3.09;92.90;101666.69;5056525;28;20216;-74
2022/01/27 00:58:00;;;;;;;15.13;9.53;;;;;;;3.09;92.75;101669.31;5038728;28;20229;-74
2022/01/27 01:00:32;;;;;;;17.43;9.30;;;;;;;3.09;93.21;101657.03;5035542;28;20236;-74
2022/01/27 01:03:03;;;;;;;15.27;9.17;;;;;;;3.11;93.12;101664.91;5031946;28;20710;-74
2022/01/27 01:05:46;;;;;;;17.10;9.80;;;;;;;3.08;92.35;101668.47;5035396;28;20316;-74
2022/01/27 01:08:53;;;;;;;17.80;9.73;;;;;;;3.11;92.50;101662.28;5052082;28;20213;-75
2022/01/27 01:11:24;;;;;;;14.73;8.77;;;;;;;3.11;93.11;101659.66;5032241;28;20268;-75
2022/01/27 01:14:24;;;;;;;15.47;8.50;;;;;;;3.12;92.13;101642.97;5031781;28;20229;-74
2022/01/27 01:16:59;;;;;;;16.20;9.10;;;;;;;3.12;92.37;101629.81;5032665;28;20217;-74
2022/01/27 01:19:38;;;;;;;16.70;9.23;;;;;;;3.11;92.13;101643.84;5055293;28;20231;-74
2022/01/27 01:29:24;;;;;;;15.30;8.40;;;;;;;3.11;92.13;101631.56;5031907;28;20234;-74
2022/01/27 01:30:45;;;;;;;12.27;7.57;;;;;;;3.12;92.29;101611.38;5032161;28;20213;-75
2022/01/27 01:33:20;;;;;;;13.10;7.37;;;;;;;3.12;92.01;101609.63;5034890;28;20238;-74
2022/01/27 01:35:49;;;;;;;12.77;7.83;;;;;;;3.13;92.18;101603.47;5032866;28;20541;-75
2022/01/27 01:38:18;;;;;;;13.90;7.60;;;;;;;3.15;92.54;101603.44;5033875;28;20225;-75
2022/01/27 01:40:45;;;;;;;13.63;7.63;;;;;;;3.17;91.60;101600.78;5036596;28;20247;-75
2022/01/27 01:43:12;;;;;;;13.17;8.03;;;;;;;3.13;91.31;101586.81;5041931;28;20234;-74
2022/01/27 01:45:38;;;;;;;11.67;6.83;;;;;;;3.17;91.55;101595.50;5032817;28;20234;-74
2022/01/27 01:48:05;;;;;;;12.97;7.27;;;;;;;3.18;91.71;101594.63;5041143;28;20668;-75
2022/01/27 01:50:34;;;;;;;10.50;6.40;;;;;;;3.19;91.71;101578.81;5032531;28;20267;-75
2022/01/27 01:53:00;;;;;;;15.27;8.63;;;;;;;3.22;91.90;101580.50;5055657;28;20281;-74
2022/01/27 01:55:27;;;;;;;12.67;8.63;;;;;;;3.18;90.99;101569.16;5047158;28;20206;-74
2022/01/27 01:57:57;;;;;;;12.07;7.87;;;;;;;3.18;91.62;101563.91;5042484;28;20198;-74
2022/01/27 02:00:24;;;;;;;16.80;9.60;;;;;;;3.18;91.37;101558.63;5035833;28;20256;-74
2022/01/27 02:02:50;;;;;;;17.60;11.17;;;;;;;3.17;91.65;101543.75;5041743;28;20248;-74
2022/01/27 02:05:17;;;;;;;19.53;11.40;;;;;;;3.17;90.72;101550.78;5051440;28;20303;-74
2022/01/27 02:07:58;;;;;;;15.87;11.03;;;;;;;3.18;90.61;101552.50;5040372;28;20297;-74
2022/01/27 02:17:48;;;;;;;20.57;12.37;;;;;;;3.18;91.25;101549.88;5035448;28;20233;-74
2022/01/27 02:18:48;;;;;;;27.77;14.63;;;;;;;3.13;90.50;101516.59;5038847;28;20225;-74
2022/01/27 02:21:16;;;;;;;24.97;14.07;;;;;;;3.13;90.08;101526.25;5039187;28;20222;-74
2022/01/27 02:23:42;;;;;;;26.53;15.10;;;;;;;3.06;89.99;101508.84;5035987;28;20233;-74
2022/01/27 02:26:09;;;;;;;29.90;14.63;;;;;;;3.06;89.54;101501.81;5036517;28;20230;-74
2022/01/27 02:28:35;;;;;;;30.53;16.00;;;;;;;3.03;89.69;101501.03;5033451;28;20217;-74
2022/01/27 02:31:02;;;;;;;33.23;18.87;;;;;;;3.03;89.23;101494.00;5042968;28;20552;-74
2022/01/27 02:33:33;;;;;;;32.00;16.53;;;;;;;3.04;89.27;101479.09;5046920;28;20236;-74
2022/01/27 02:35:59;;;;;;;30.67;14.93;;;;;;;2.99;89.32;101473.91;5035186;28;20210;-74
2022/01/27 02:41:13;;;;;;;34.87;18.17;;;;;;;3.03;88.86;101477.34;5027474;28;20280;-73
2022/01/27 02:43:40;;;;;;;39.83;17.33;;;;;;;3.07;88.62;101484.25;5030282;28;20202;-73
2022/01/27 02:46:12;;;;;;;37.60;17.50;;;;;;;3.02;88.59;101484.38;5030018;28;20234;-73
2022/01/27 02:48:38;;;;;;;35.73;17.83;;;;;;;3.02;89.15;101488.75;5030168;28;20210;-72
2022/01/27 02:51:05;;;;;;;35.13;17.93;;;;;;;3.02;89.26;101515.09;5029164;28;20211;-73
2022/01/27 02:53:31;;;;;;;31.33;13.97;;;;;;;3.00;88.23;101504.59;5029884;28;20224;-73
2022/01/27 02:55:58;;;;;;;42.40;18.90;;;;;;;3.03;88.17;101498.41;5029249;28;20210;-72
2022/01/27 02:58:26;;;;;;;44.13;21.33;;;;;;;3.02;88.69;101496.66;5031425;28;20255;-73
2022/01/27 03:00:52;;;;;;;49.10;22.57;;;;;;;3.04;87.88;101503.63;5027594;28;20221;-72
2022/01/27 03:03:19;;;;;;;51.57;24.83;;;;;;;3.05;88.21;101500.06;5029449;28;20210;-73
2022/01/27 03:05:46;;;;;;;54.07;25.77;;;;;;;3.09;87.77;101493.00;5029812;28;20232;-72
2022/01/27 03:08:12;;;;;;;54.30;23.73;;;;;;;3.07;87.85;101495.66;5033688;28;20237;-72
2022/01/27 03:10:44;;;;;;;56.83;26.93;;;;;;;3.09;87.93;101501.75;5029791;28;20229;-73
2022/01/27 03:13:10;;;;;;;57.47;25.10;;;;;;;3.09;88.07;101496.50;5029026;28;20214;-72
2022/01/27 03:15:38;;;;;;;48.10;22.50;;;;;;;3.11;87.07;101499.09;5021804;28;20217;-73
2022/01/27 03:18:05;;;;;;;52.67;25.53;;;;;;;3.08;86.55;101483.38;5029882;28;20208;-73
2022/01/27 03:20:33;;;;;;;52.57;24.47;;;;;;;3.08;86.82;101480.72;5029782;28;20237;-72
2022/01/27 03:23:02;;;;;;;49.73;24.63;;;;;;;3.07;87.01;101474.59;5029866;28;20647;-72
2022/01/27 03:25:29;;;;;;;47.27;23.53;;;;;;;3.09;87.14;101466.69;5029580;28;20687;-73
2022/01/27 03:27:56;;;;;;;47.07;23.60;;;;;;;3.07;87.04;101457.94;5029824;28;20210;-72
2022/01/27 03:30:23;;;;;;;51.13;26.03;;;;;;;3.09;86.82;101458.78;5022652;28;20318;-72
2022/01/27 03:32:50;;;;;;;43.93;21.43;;;;;;;3.09;86.95;101462.28;5025579;28;20214;-72
2022/01/27 03:35:17;;;;;;;56.47;24.87;;;;;;;3.09;86.53;101475.44;5028222;28;20241;-72
2022/01/27 03:37:43;;;;;;;53.20;24.67;;;;;;;3.08;85.94;101486.00;5029072;28;20213;-72
2022/01/27 03:40:10;;;;;;;55.90;26.27;;;;;;;3.10;86.88;101476.31;5029126;28;20257;-72
2022/01/27 03:42:44;;;;;;;58.37;27.33;;;;;;;3.06;85.74;101474.63;5027854;28;20214;-72
2022/01/27 03:45:12;;;;;;;63.20;29.70;;;;;;;3.06;85.98;101472.00;5029911;28;20226;-72
2022/01/27 03:47:38;;;;;;;53.77;25.73;;;;;;;3.07;85.96;101485.13;5028805;28;20230;-72
2022/01/27 03:50:07;;;;;;;59.13;29.03;;;;;;;3.03;85.84;101479.97;5029023;28;20229;-73
2022/01/27 03:52:34;;;;;;;58.97;27.27;;;;;;;3.04;86.33;101482.59;5029608;28;20214;-72
2022/01/27 03:55:00;;;;;;;67.43;31.63;;;;;;;3.02;85.99;101473.84;5029283;28;20580;-73
2022/01/27 03:57:27;;;;;;;55.30;26.40;;;;;;;3.06;86.00;101451.81;5029587;28;20206;-72
2022/01/27 03:59:53;;;;;;;50.10;26.23;;;;;;;3.02;85.32;101463.31;5028002;28;20249;-72
2022/01/27 04:02:20;;;;;;;58.13;26.93;;;;;;;3.00;85.44;101461.59;5029901;28;20225;-72
2022/01/27 04:04:46;;;;;;;58.43;28.27;;;;;;;2.94;84.74;101453.81;5028563;28;20602;-72
2022/01/27 04:07:14;;;;;;;47.57;26.00;;;;;;;2.91;84.17;101457.38;5029205;28;20237;-71
2022/01/27 04:09:41;;;;;;;43.40;21.73;;;;;;;2.92;83.97;101448.59;5028104;28;20234;-72
2022/01/27 04:12:08;;;;;;;45.13;22.53;;;;;;;2.92;83.75;101437.19;5028902;28;20668;-72
2022/01/27 04:14:36;;;;;;;44.67;22.27;;;;;;;2.92;84.72;101445.09;5029011;28;20216;-72
2022/01/27 04:17:03;;;;;;;44.47;21.00;;;;;;;2.92;84.38;101432.81;5028953;28;20222;-72
2022/01/27 04:19:30;;;;;;;40.53;19.80;;;;;;;2.92;84.13;101431.94;5029193;28;20230;-72
2022/01/27 04:21:56;;;;;;;48.60;22.90;;;;;;;2.90;83.84;101436.34;5028330;28;20210;-73
2022/01/27 04:24:24;;;;;;;45.53;24.00;;;;;;;2.91;83.58;101427.56;5031432;28;20241;-73
2022/01/27 04:26:59;;;;;;;40.07;22.53;;;;;;;2.86;83.65;101404.00;5018917;28;20285;-71
2022/01/27 04:29:26;;;;;;;48.87;23.73;;;;;;;2.85;83.13;101406.66;5033043;28;20739;-73
2022/01/27 04:31:53;;;;;;;47.33;23.30;;;;;;;2.85;83.73;101423.31;5031356;28;20218;-71
2022/01/27 04:34:19;;;;;;;33.73;16.20;;;;;;;2.84;83.29;101415.44;5031250;28;20214;-72
2022/01/27 04:36:46;;;;;;;49.93;22.47;;;;;;;2.85;83.01;101422.44;5030711;28;20209;-71
2022/01/27 04:39:18;;;;;;;46.10;22.67;;;;;;;2.85;82.56;101422.44;5031553;28;20719;-72
2022/01/27 04:41:52;;;;;;;37.70;17.90;;;;;;;2.81;82.31;101431.28;5030750;28;20202;-71
2022/01/27 04:44:25;;;;;;;40.17;21.03;;;;;;;2.79;82.75;101411.13;5032144;28;20210;-72
2022/01/27 04:46:57;;;;;;;44.60;23.47;;;;;;;2.78;82.66;101409.41;5028282;28;20284;-72
2022/01/27 04:49:24;;;;;;;44.67;22.00;;;;;;;2.81;82.61;101407.59;5030788;28;20226;-72
2022/01/27 04:51:51;;;;;;;37.70;19.30;;;;;;;2.79;82.07;101403.25;5033321;28;20206;-72
2022/01/27 04:54:23;;;;;;;42.20;21.07;;;;;;;2.81;82.65;101384.81;5031154;28;20240;-72
2022/01/27 04:56:51;;;;;;;41.67;19.87;;;;;;;2.83;82.05;101372.50;5031210;28;20202;-73
2022/01/27 04:59:23;;;;;;;39.40;19.03;;;;;;;2.81;81.67;101386.56;5029317;28;20604;-72
2022/01/27 05:01:53;;;;;;;44.47;21.27;;;;;;;2.80;82.71;101388.31;5025558;28;20766;-72
2022/01/27 05:04:23;;;;;;;43.37;22.20;;;;;;;2.78;82.34;101375.19;5028657;28;20288;-71
2022/01/27 05:06:50;;;;;;;39.73;19.60;;;;;;;2.81;81.92;101358.50;5031483;28;20327;-71
2022/01/27 05:09:17;;;;;;;48.97;23.63;;;;;;;2.79;81.87;101345.38;5031655;28;20278;-72
2022/01/27 05:11:49;;;;;;;48.97;22.43;;;;;;;2.78;81.79;101326.97;5032502;28;20656;-72
2022/01/27 05:14:20;;;;;;;42.37;20.13;;;;;;;2.77;82.70;101352.41;5031218;28;20207;-72
2022/01/27 05:16:47;;;;;;;43.10;21.97;;;;;;;2.74;82.02;101352.47;5027936;28;20206;-71
2022/01/27 05:19:13;;;;;;;40.33;19.37;;;;;;;2.75;82.05;101348.09;5030657;28;20237;-72
2022/01/27 05:21:41;;;;;;;45.53;21.63;;;;;;;2.77;81.97;101344.53;5029829;28;20206;-72
2022/01/27 05:24:08;;;;;;;48.57;21.60;;;;;;;2.78;81.95;101327.84;5032154;28;20209;-71
2022/01/27 05:26:35;;;;;;;42.90;19.37;;;;;;;2.85;81.66;101319.84;5031337;28;20230;-71
2022/01/27 05:29:03;;;;;;;44.97;18.60;;;;;;;2.79;82.25;101319.06;5029593;28;20657;-72
2022/01/27 05:31:31;;;;;;;46.00;21.03;;;;;;;2.81;81.65;101302.38;5031622;28;20220;-72
2022/01/27 05:33:57;;;;;;;40.67;19.63;;;;;;;2.79;82.16;101311.19;5030263;28;20210;-72
2022/01/27 05:36:24;;;;;;;43.17;18.90;;;;;;;2.73;81.88;101313.91;5031756;28;20221;-72
2022/01/27 05:38:51;;;;;;;42.93;23.03;;;;;;;2.72;82.51;101312.19;5030489;28;20877;-72
2022/01/27 05:41:17;;;;;;;42.30;19.20;;;;;;;2.72;82.64;101295.53;5031855;28;20267;-71
2022/01/27 05:43:45;;;;;;;44.40;20.63;;;;;;;2.70;82.75;101286.81;5027144;28;20668;-72
2022/01/27 05:46:12;;;;;;;43.57;22.17;;;;;;;2.70;82.31;101266.63;5029226;28;20213;-71
2022/01/27 05:48:40;;;;;;;46.43;20.53;;;;;;;2.75;82.97;101269.19;5027749;28;20215;-71
2022/01/27 05:51:06;;;;;;;43.30;20.40;;;;;;;2.76;82.43;101271.78;5028173;28;20609;-71
2022/01/27 05:53:35;;;;;;;45.63;20.20;;;;;;;2.75;82.74;101258.66;5028797;28;20676;-72
2022/01/27 05:56:02;;;;;;;48.70;20.93;;;;;;;2.74;82.48;101242.00;5026506;28;20667;-71
2022/01/27 05:58:29;;;;;;;43.60;19.93;;;;;;;2.76;82.90;101253.38;5025690;28;20209;-71
2022/01/27 06:00:55;;;;;;;40.83;19.07;;;;;;;2.74;82.21;101244.63;5026549;28;20236;-71
2022/01/27 06:03:22;;;;;;;42.17;19.63;;;;;;;2.78;82.94;101242.81;5029166;28;20230;-72
2022/01/27 06:05:50;;;;;;;38.40;18.97;;;;;;;2.77;82.94;101225.31;5027537;28;20202;-72
2022/01/27 06:08:16;;;;;;;37.17;19.33;;;;;;;2.74;83.14;101226.22;5021995;28;20241;-72
2022/01/27 06:10:42;;;;;;;38.63;19.53;;;;;;;2.76;82.80;101226.19;5026784;28;20594;-73
2022/01/27 06:13:09;;;;;;;36.03;18.97;;;;;;;2.73;82.24;101200.81;5023287;28;20213;-72
2022/01/27 06:15:36;;;;;;;39.10;19.97;;;;;;;2.76;82.81;101207.78;5024425;28;20560;-71
2022/01/27 06:18:02;;;;;;;39.37;19.63;;;;;;;2.77;82.34;101210.38;5025008;28;20202;-72
2022/01/27 06:20:30;;;;;;;41.47;18.80;;;;;;;2.76;82.60;101223.56;5026537;28;20226;-72
2022/01/27 06:22:58;;;;;;;33.70;16.50;;;;;;;2.74;82.47;101236.75;5026426;28;20691;-71
2022/01/27 06:25:26;;;;;;;38.63;17.37;;;;;;;2.78;83.03;101225.25;5028306;28;20202;-72
2022/01/27 06:27:53;;;;;;;38.60;17.60;;;;;;;2.81;82.65;101210.31;5029607;28;20388;-72
2022/01/27 06:30:20;;;;;;;38.90;18.80;;;;;;;2.84;82.66;101210.25;5024756;28;20230;-72
2022/01/27 06:32:47;;;;;;;41.43;20.80;;;;;;;2.84;82.13;101219.00;5029117;28;20680;-72
2022/01/27 06:35:13;;;;;;;40.00;19.30;;;;;;;2.85;82.16;101212.00;5021189;28;20225;-74
2022/01/27 06:37:41;;;;;;;38.00;18.37;;;;;;;2.83;82.10;101214.66;5028188;28;20202;-74
2022/01/27 06:40:11;;;;;;;38.17;18.30;;;;;;;2.85;82.84;101217.25;5028731;28;20264;-74
2022/01/27 06:42:38;;;;;;;41.80;19.10;;;;;;;2.86;82.25;101230.38;5025413;28;20225;-75
2022/01/27 06:45:05;;;;;;;38.13;17.63;;;;;;;2.91;82.89;101231.13;5028523;28;20211;-74
2022/01/27 06:47:32;;;;;;;38.40;19.30;;;;;;;2.90;82.20;101220.63;5027378;28;20240;-74
2022/01/27 06:49:59;;;;;;;41.37;20.57;;;;;;;2.91;82.09;101217.09;5029669;28;20224;-75
2022/01/27 06:52:27;;;;;;;37.50;18.43;;;;;;;2.92;82.36;101224.09;5029145;28;20206;-70
2022/01/27 06:54:55;;;;;;;42.77;18.17;;;;;;;2.95;82.26;101213.50;5025508;28;20211;-71
2022/01/27 06:57:23;;;;;;;36.10;18.93;;;;;;;2.97;82.10;101219.59;5024566;28;20214;-70
2022/01/27 06:59:49;;;;;;;40.77;18.67;;;;;;;2.99;82.01;101230.94;5029333;28;20242;-73
2022/01/27 07:02:16;;;;;;;41.00;19.10;;;;;;;3.00;82.39;101236.19;5030044;28;20213;-72
2022/01/27 07:04:43;;;;;;;36.33;17.50;;;;;;;3.02;82.04;101230.88;5029627;28;20561;-71
2022/01/27 07:07:10;;;;;;;45.07;20.37;;;;;;;3.02;82.94;101234.38;5029605;28;20234;-70
2022/01/27 07:09:36;;;;;;;38.23;19.40;;;;;;;3.03;82.99;101228.22;5028984;28;20230;-70
2022/01/27 07:12:03;;;;;;;42.37;19.60;;;;;;;3.03;82.25;101225.59;5024853;28;20672;-71
2022/01/27 07:14:33;;;;;;;39.53;20.37;;;;;;;3.04;82.64;101231.72;5029749;28;20224;-71
2022/01/27 07:16:59;;;;;;;36.63;19.80;;;;;;;3.03;83.52;101227.34;5018004;28;20202;-70
2022/01/27 07:19:26;;;;;;;42.87;18.13;;;;;;;3.04;82.84;101215.94;5029727;28;20331;-71
2022/01/27 07:21:52;;;;;;;37.77;17.73;;;;;;;3.02;83.54;101205.44;5028692;28;20206;-71
2022/01/27 07:24:19;;;;;;;41.13;18.97;;;;;;;3.00;84.10;101219.53;5019911;28;20207;-71
2022/01/27 07:26:46;;;;;;;41.70;20.70;;;;;;;2.97;84.01;101202.03;5026352;28;20221;-72
2022/01/27 07:29:12;;;;;;;37.63;18.70;;;;;;;2.97;84.23;101207.31;5029901;28;20631;-71
2022/01/27 07:31:40;;;;;;;39.73;19.27;;;;;;;2.96;84.64;101202.06;5028849;28;20221;-70
2022/01/27 07:34:07;;;;;;;37.23;18.53;;;;;;;2.98;85.16;101187.13;5029561;28;20221;-72
2022/01/27 07:36:34;;;;;;;33.47;17.90;;;;;;;3.00;85.15;101193.22;5028920;28;20210;-72
2022/01/27 07:39:01;;;;;;;40.00;18.80;;;;;;;3.02;85.26;101175.63;5029136;28;20731;-70
2022/01/27 07:41:28;;;;;;;32.37;15.87;;;;;;;3.08;85.31;101172.81;5029354;28;20675;-72
2022/01/27 07:43:55;;;;;;;41.80;17.63;;;;;;;3.05;85.06;101162.38;5028266;28;20214;-71
2022/01/27 07:46:21;;;;;;;40.47;19.07;;;;;;;3.05;85.03;101146.59;5028361;28;20316;-71
2022/01/27 07:48:49;;;;;;;42.30;19.87;;;;;;;3.05;84.97;101157.09;5029124;28;20222;-71
2022/01/27 07:51:17;;;;;;;36.47;19.60;;;;;;;3.04;85.09;101152.78;5017230;28;20210;-71
2022/01/27 07:53:43;;;;;;;36.87;17.03;;;;;;;3.06;85.76;101151.81;5029203;28;20221;-70
2022/01/27 07:56:10;;;;;;;37.27;17.77;;;;;;;3.09;85.46;101148.25;5027799;28;20214;-70
2022/01/27 07:58:40;;;;;;;33.20;17.57;;;;;;;3.13;85.07;101128.84;5029948;28;20648;-70
2022/01/27 08:01:08;;;;;;;33.77;17.30;;;;;;;3.17;85.43;101112.09;5031150;28;20580;-71
2022/01/27 08:03:34;;;;;;;31.97;17.13;;;;;;;3.20;85.51;101124.31;5032929;28;20206;-72
2022/01/27 08:06:03;;;;;;;39.13;18.83;;;;;;;3.22;85.90;101133.03;5032442;28;20222;-70
2022/01/27 08:08:29;;;;;;;34.93;18.13;;;;;;;3.28;85.45;101123.19;5033238;28;20313;-71
2022/01/27 08:10:56;;;;;;;38.80;19.37;;;;;;;3.24;86.05;101121.53;5030623;28;20234;-71
2022/01/27 08:13:22;;;;;;;36.70;18.37;;;;;;;3.26;85.99;101124.13;5031457;28;20207;-71
2022/01/27 08:15:49;;;;;;;33.77;18.20;;;;;;;3.29;86.49;101119.66;5033056;28;20244;-71
2022/01/27 08:18:15;;;;;;;37.17;18.30;;;;;;;3.28;86.77;101125.81;5032083;28;20210;-71
2022/01/27 08:20:42;;;;;;;37.13;17.60;;;;;;;3.28;86.79;101117.94;5032506;28;20703;-71
2022/01/27 08:23:09;;;;;;;36.73;17.20;;;;;;;3.31;86.87;101106.44;5032934;28;20214;-72
2022/01/27 08:25:36;;;;;;;33.87;17.00;;;;;;;3.37;86.56;101104.53;5031200;28;20225;-71
2022/01/27 08:28:06;;;;;;;20.27;10.87;;;;;;;3.41;86.56;101100.88;5032756;28;20329;-72
2022/01/27 08:30:40;;;;;;;31.57;15.87;;;;;;;3.43;86.72;101114.88;5031068;28;20226;-70
2022/01/27 08:33:13;;;;;;;27.83;13.30;;;;;;;3.46;86.42;101112.19;5026356;28;20218;-71
2022/01/27 08:35:40;;;;;;;23.07;12.90;;;;;;;3.49;86.11;101098.94;5032356;28;20210;-72
2022/01/27 08:38:06;;;;;;;26.97;14.10;;;;;;;3.52;86.18;101105.03;5032695;28;20206;-71
2022/01/27 08:40:35;;;;;;;32.57;16.83;;;;;;;3.56;86.92;101106.69;5031271;28;20229;-72
2022/01/27 08:43:02;;;;;;;24.17;13.47;;;;;;;3.55;86.60;101092.66;5032480;28;20240;-72
2022/01/27 08:45:28;;;;;;;27.40;14.50;;;;;;;3.57;87.61;101101.38;5031899;28;20218;-71
2022/01/27 08:47:57;;;;;;;27.97;13.87;;;;;;;3.60;87.44;101097.75;5032308;28;20229;-72
2022/01/27 08:50:25;;;;;;;27.17;15.40;;;;;;;3.61;87.29;101092.44;5030340;28;20234;-71
2022/01/27 08:52:51;;;;;;;21.60;12.80;;;;;;;3.62;88.27;101093.31;5032360;28;20218;-71
2022/01/27 08:55:20;;;;;;;24.57;14.43;;;;;;;3.65;88.05;101091.47;5032672;28;20222;-71
2022/01/27 08:57:48;;;;;;;26.13;14.40;;;;;;;3.67;87.76;101084.41;5031441;28;20233;-71
2022/01/27 09:00:16;;;;;;;26.73;15.10;;;;;;;3.67;88.40;101102.81;5032180;28;20241;-71
2022/01/27 09:02:42;;;;;;;22.03;12.77;;;;;;;3.69;88.52;101100.16;5031349;28;20664;-72
2022/01/27 09:05:09;;;;;;;27.43;14.30;;;;;;;3.70;88.53;101105.38;5031932;28;20213;-70
2022/01/27 09:07:36;;;;;;;23.70;13.27;;;;;;;3.70;88.66;101096.63;5031632;28;20241;-71
2022/01/27 09:10:04;;;;;;;21.10;12.00;;;;;;;3.68;90.14;101090.53;5030313;28;20750;-71
2022/01/27 09:12:30;;;;;;;17.97;11.57;;;;;;;3.66;90.68;101089.69;5032620;28;20340;-71
2022/01/27 09:14:58;;;;;;;20.90;11.97;;;;;;;3.68;90.52;101093.16;5031522;28;20214;-71
2022/01/27 09:17:26;;;;;;;19.37;11.73;;;;;;;3.70;90.27;101088.72;5032340;28;20684;-71
2022/01/27 09:19:54;;;;;;;22.23;12.57;;;;;;;3.72;90.42;101086.91;5030692;28;20234;-71
2022/01/27 09:22:22;;;;;;;20.43;12.10;;;;;;;3.73;90.70;101073.69;5031880;28;20217;-71
2022/01/27 09:24:54;;;;;;;18.27;11.00;;;;;;;3.75;90.62;101073.66;5031543;28;20213;-71
2022/01/27 09:27:20;;;;;;;16.93;9.80;;;;;;;3.78;91.17;101063.00;5020095;28;20210;-71
2022/01/27 09:29:47;;;;;;;16.17;10.73;;;;;;;3.78;91.20;101070.91;5031212;28;20320;-70
2022/01/27 09:32:16;;;;;;;20.03;11.70;;;;;;;3.77;91.44;101077.06;5030434;28;20300;-71
2022/01/27 09:34:43;;;;;;;17.03;10.40;;;;;;;3.80;92.33;101069.09;5031821;28;20276;-71
2022/01/27 09:37:10;;;;;;;19.07;9.63;;;;;;;3.79;92.10;101078.75;5028325;28;20206;-70
2022/01/27 09:39:36;;;;;;;14.30;9.57;;;;;;;3.79;93.09;101070.00;5031085;28;20261;-71
2022/01/27 09:42:05;;;;;;;18.17;11.20;;;;;;;3.84;92.64;101086.53;5031257;28;20214;-72
2022/01/27 09:44:34;;;;;;;15.60;9.83;;;;;;;3.84;93.18;101068.09;5026874;28;20225;-71
2022/01/27 09:47:02;;;;;;;14.47;9.77;;;;;;;3.86;92.77;101078.59;5031234;28;20210;-74
2022/01/27 09:49:35;;;;;;;17.07;9.77;;;;;;;3.87;93.12;101078.56;5030912;28;20229;-73
2022/01/27 09:52:03;;;;;;;11.33;7.77;;;;;;;3.90;92.91;101083.75;5032365;28;20207;-71
2022/01/27 09:54:29;;;;;;;14.57;9.93;;;;;;;3.92;93.28;101071.38;5030015;28;20679;-73
2022/01/27 09:56:56;;;;;;;12.23;8.40;;;;;;;3.93;93.62;101073.13;5030688;28;20210;-71
2022/01/27 09:59:23;;;;;;;11.77;7.73;;;;;;;3.95;92.99;101067.78;5029773;28;20226;-70
2022/01/27 10:01:55;;;;;;;11.53;7.40;;;;;;;3.95;92.96;101067.78;5030621;28;20215;-71
2022/01/27 10:04:23;;;;;;;15.63;10.53;;;;;;;3.96;93.84;101058.97;5030001;28;20213;-70
2022/01/27 10:06:57;;;;;;;14.33;10.33;;;;;;;3.94;93.69;101053.75;5029816;28;20577;-70
2022/01/27 10:09:26;;;;;;;11.47;8.27;;;;;;;3.95;93.84;101046.69;5030375;28;20292;-70
2022/01/27 10:11:54;;;;;;;11.93;7.77;;;;;;;3.98;93.80;101058.00;5030512;28;20676;-71
2022/01/27 10:14:23;;;;;;;13.03;8.47;;;;;;;4.01;94.33;101046.53;5031278;28;20217;-70
2022/01/27 10:16:52;;;;;;;11.67;8.90;;;;;;;4.01;94.11;101052.66;5028536;28;20643;-70
2022/01/27 10:19:19;;;;;;;12.20;8.70;;;;;;;4.04;94.16;101051.72;5023393;28;20271;-70
2022/01/27 10:21:47;;;;;;;9.47;7.93;;;;;;;4.02;94.66;101054.38;5029037;28;20214;-71
2022/01/27 10:24:22;;;;;;;7.73;6.90;;;;;;;4.03;95.36;101044.72;5019660;28;20328;-71
2022/01/27 10:27:15;;;;;;;8.87;7.17;;;;;;;4.03;95.37;101050.84;5027637;28;20304;-70
2022/01/27 10:29:50;;;;;;;9.53;7.57;;;;;;;4.07;94.95;101055.13;5030205;28;20246;-71
2022/01/27 10:32:17;;;;;;;8.87;5.90;;;;;;;4.12;94.81;101052.34;5028824;28;20248;-72
2022/01/27 10:34:57;;;;;;;11.50;8.93;;;;;;;4.16;95.16;101051.31;5030562;28;20220;-70
2022/01/27 10:37:24;;;;;;;7.83;5.77;;;;;;;4.18;94.84;101039.81;5021098;28;20268;-71
2022/01/27 10:39:51;;;;;;;9.77;8.60;;;;;;;4.19;94.93;101041.56;5030184;28;20580;-71
2022/01/27 10:42:21;;;;;;;6.83;5.93;;;;;;;4.23;95.02;101021.25;5029506;28;20218;-71
2022/01/27 10:44:55;;;;;;;11.57;10.47;;;;;;;4.25;95.68;101029.09;5022456;28;20221;-71
2022/01/27 10:47:28;;;;;;;6.83;6.03;;;;;;;4.29;95.89;101030.75;5029286;28;20210;-71
2022/01/27 10:49:58;;;;;;;11.77;10.63;;;;;;;4.31;95.40;101048.22;5030362;28;20265;-72
2022/01/27 10:52:34;;;;;;;8.87;7.97;;;;;;;4.31;95.91;101027.13;5030070;28;20206;-72
2022/01/27 10:55:10;;;;;;;9.43;8.53;;;;;;;4.36;96.16;101032.25;5030394;28;20209;-70
2022/01/27 10:57:36;;;;;;;7.37;6.10;;;;;;;4.41;96.01;101056.72;5028022;28;20275;-71
2022/01/27 11:00:10;;;;;;;10.33;8.77;;;;;;;4.44;95.72;101048.72;5019534;28;20230;-71
2022/01/27 11:02:49;;;;;;;7.07;5.97;;;;;;;4.48;95.63;101029.22;5029337;28;20597;-71
2022/01/27 11:05:19;;;;;;;6.50;5.90;;;;;;;4.52;95.84;101046.69;5020197;28;20320;-71
2022/01/27 11:07:46;;;;;;;7.67;6.87;;;;;;;4.54;95.71;101026.38;5029001;28;20210;-70
2022/01/27 11:10:16;;;;;;;6.83;5.60;;;;;;;4.56;95.67;101019.28;5029545;28;20237;-71
2022/01/27 11:12:43;;;;;;;17.17;11.00;;;;;;;4.59;96.10;101013.06;5029255;28;20206;-71
2022/01/27 11:15:11;;;;;;;7.20;5.37;;;;;;;4.60;96.25;101017.41;5030005;28;20680;-70
2022/01/27 11:17:39;;;;;;;5.97;5.10;;;;;;;4.67;96.21;101005.72;5018353;28;20214;-70
2022/01/27 11:20:23;;;;;;;5.57;4.57;;;;;;;4.71;96.11;101013.50;5027062;28;20234;-72
2022/01/27 11:23:11;;;;;;;6.00;5.40;;;;;;;4.75;95.74;101027.47;5029425;28;20216;-71
2022/01/27 11:25:51;;;;;;;7.63;6.17;;;;;;;4.81;95.74;101030.78;5028313;28;20210;-71
2022/01/27 11:28:19;;;;;;;6.37;5.67;;;;;;;4.88;95.45;101029.63;5027783;28;20232;-70
2022/01/27 11:30:57;;;;;;;6.03;4.77;;;;;;;4.91;95.45;101030.44;5028995;28;20602;-71
2022/01/27 11:33:31;;;;;;;6.20;5.60;;;;;;;4.95;95.74;101014.47;5029089;28;20698;-69
2022/01/27 11:36:09;;;;;;;7.93;6.03;;;;;;;4.98;95.60;101010.84;5016940;28;20260;-69
2022/01/27 11:38:37;;;;;;;7.47;6.00;;;;;;;5.01;95.78;101010.75;5028681;28;20206;-71
2022/01/27 11:41:05;;;;;;;9.20;7.03;;;;;;;5.02;95.55;101020.38;5029067;28;20688;-71
2022/01/27 11:43:33;;;;;;;8.70;6.27;;;;;;;5.06;95.35;101014.94;5017619;28;20241;-70